sensor_id;sensor_type;location;lat;lon;timestamp;P1;durP1;ratioP1;P2;durP2;ratioP2
14599;SDS011;7386;45.586;12.854;2022-09-03T00:02:06;5.68;;;3.25;;
14599;SDS011;7386;45.586;12.854;2022-09-03T00:04:38;5.47;;;3.47;;
14599;SDS011;7386;45.586;12.854;2022-09-03T00:07:10;3.80;;;3.00;;
14599;SDS011;7386;45.586;12.854;2022-09-03T00:09:42;4.18;;;3.10;;
14599;SDS011;7386;45.586;12.854;2022-09-03T00:12:15;4.72;;;3.20;;
14599;SDS011;7386;45.586;12.854;2022-09-03T00:14:48;3.75;;;3.00;;
14599;SDS011;7386;45.586;12.854;2022-09-03T00:17:19;3.45;;;3.03;;
14599;SDS011;7386;45.586;12.854;2022-09-03T00:19:52;6.13;;;3.20;;
14599;SDS011;7386;45.586;12.854;2022-09-03T00:22:22;3.25;;;2.95;;
14599;SDS011;7386;45.586;12.854;2022-09-03T00:24:52;3.50;;;3.20;;
14599;SDS011;7386;45.586;12.854;2022-09-03T00:27:21;4.00;;;2.90;;
14599;SDS011;7386;45.586;12.854;2022-09-03T00:29:53;3.72;;;2.92;;
14599;SDS011;7386;45.586;12.854;2022-09-03T00:32:23;4.07;;;2.78;;
14599;SDS011;7386;45.586;12.854;2022-09-03T00:34:55;3.83;;;2.78;;
14599;SDS011;7386;45.586;12.854;2022-09-03T00:37:25;3.50;;;2.78;;
14599;SDS011;7386;45.586;12.854;2022-09-03T00:40:04;3.13;;;2.50;;
14599;SDS011;7386;45.586;12.854;2022-09-03T00:42:38;3.58;;;2.83;;
14599;SDS011;7386;45.586;12.854;2022-09-03T00:45:15;2.85;;;2.65;;
14599;SDS011;7386;45.586;12.854;2022-09-03T00:47:54;4.65;;;2.88;;
14599;SDS011;7386;45.586;12.854;2022-09-03T00:50:28;3.33;;;2.70;;
14599;SDS011;7386;45.586;12.854;2022-09-03T00:53:02;2.85;;;2.55;;
14599;SDS011;7386;45.586;12.854;2022-09-03T00:55:36;4.57;;;2.90;;
14599;SDS011;7386;45.586;12.854;2022-09-03T00:58:10;2.60;;;2.40;;
14599;SDS011;7386;45.586;12.854;2022-09-03T01:00:47;4.82;;;2.72;;
14599;SDS011;7386;45.586;12.854;2022-09-03T01:03:19;2.78;;;2.47;;
14599;SDS011;7386;45.586;12.854;2022-09-03T01:05:58;4.03;;;2.80;;
14599;SDS011;7386;45.586;12.854;2022-09-03T01:08:32;4.43;;;2.60;;
14599;SDS011;7386;45.586;12.854;2022-09-03T01:11:05;3.83;;;2.67;;
14599;SDS011;7386;45.586;12.854;2022-09-03T01:13:37;2.88;;;2.60;;
14599;SDS011;7386;45.586;12.854;2022-09-03T01:16:11;4.47;;;2.95;;
14599;SDS011;7386;45.586;12.854;2022-09-03T01:18:43;4.75;;;2.85;;
14599;SDS011;7386;45.586;12.854;2022-09-03T01:21:27;4.45;;;2.53;;
14599;SDS011;7386;45.586;12.854;2022-09-03T01:24:15;3.03;;;2.72;;
14599;SDS011;7386;45.586;12.854;2022-09-03T01:26:53;3.58;;;2.90;;
14599;SDS011;7386;45.586;12.854;2022-09-03T01:29:26;3.40;;;3.10;;
14599;SDS011;7386;45.586;12.854;2022-09-03T01:32:00;3.33;;;2.90;;
14599;SDS011;7386;45.586;12.854;2022-09-03T01:34:32;3.05;;;2.70;;
14599;SDS011;7386;45.586;12.854;2022-09-03T01:37:05;5.70;;;3.17;;
14599;SDS011;7386;45.586;12.854;2022-09-03T01:39:37;4.38;;;3.30;;
14599;SDS011;7386;45.586;12.854;2022-09-03T01:42:13;3.78;;;3.13;;
14599;SDS011;7386;45.586;12.854;2022-09-03T01:44:51;3.88;;;3.10;;
14599;SDS011;7386;45.586;12.854;2022-09-03T01:47:35;5.00;;;3.53;;
14599;SDS011;7386;45.586;12.854;2022-09-03T01:50:19;5.85;;;3.10;;
14599;SDS011;7386;45.586;12.854;2022-09-03T01:52:54;4.93;;;3.30;;
14599;SDS011;7386;45.586;12.854;2022-09-03T01:55:27;5.03;;;3.40;;
14599;SDS011;7386;45.586;12.854;2022-09-03T01:57:57;4.53;;;3.65;;
14599;SDS011;7386;45.586;12.854;2022-09-03T02:00:29;7.35;;;3.90;;
14599;SDS011;7386;45.586;12.854;2022-09-03T02:02:59;4.68;;;3.70;;
14599;SDS011;7386;45.586;12.854;2022-09-03T02:05:31;6.43;;;3.70;;
14599;SDS011;7386;45.586;12.854;2022-09-03T02:08:01;5.88;;;3.67;;
14599;SDS011;7386;45.586;12.854;2022-09-03T02:10:33;5.25;;;4.10;;
14599;SDS011;7386;45.586;12.854;2022-09-03T02:13:04;5.22;;;3.90;;
14599;SDS011;7386;45.586;12.854;2022-09-03T02:15:35;5.88;;;4.15;;
14599;SDS011;7386;45.586;12.854;2022-09-03T02:18:05;4.78;;;4.00;;
14599;SDS011;7386;45.586;12.854;2022-09-03T02:20:35;5.13;;;3.85;;
14599;SDS011;7386;45.586;12.854;2022-09-03T02:23:05;4.68;;;4.00;;
14599;SDS011;7386;45.586;12.854;2022-09-03T02:25:34;6.30;;;4.65;;
14599;SDS011;7386;45.586;12.854;2022-09-03T02:28:05;6.88;;;4.63;;
14599;SDS011;7386;45.586;12.854;2022-09-03T02:30:54;5.32;;;4.50;;
14599;SDS011;7386;45.586;12.854;2022-09-03T02:33:23;6.60;;;4.63;;
14599;SDS011;7386;45.586;12.854;2022-09-03T02:35:51;5.55;;;4.75;;
14599;SDS011;7386;45.586;12.854;2022-09-03T02:38:21;5.82;;;4.40;;
14599;SDS011;7386;45.586;12.854;2022-09-03T02:40:51;6.00;;;4.55;;
14599;SDS011;7386;45.586;12.854;2022-09-03T02:43:21;9.02;;;4.70;;
14599;SDS011;7386;45.586;12.854;2022-09-03T02:45:53;5.63;;;4.75;;
14599;SDS011;7386;45.586;12.854;2022-09-03T02:48:24;5.53;;;4.40;;
14599;SDS011;7386;45.586;12.854;2022-09-03T02:50:53;5.95;;;4.80;;
14599;SDS011;7386;45.586;12.854;2022-09-03T02:53:21;6.18;;;4.63;;
14599;SDS011;7386;45.586;12.854;2022-09-03T02:55:50;6.10;;;4.22;;
14599;SDS011;7386;45.586;12.854;2022-09-03T02:58:18;5.78;;;4.55;;
14599;SDS011;7386;45.586;12.854;2022-09-03T03:00:47;5.60;;;4.28;;
14599;SDS011;7386;45.586;12.854;2022-09-03T03:03:16;5.00;;;4.40;;
14599;SDS011;7386;45.586;12.854;2022-09-03T03:05:46;5.65;;;4.38;;
14599;SDS011;7386;45.586;12.854;2022-09-03T03:08:16;5.00;;;4.13;;
14599;SDS011;7386;45.586;12.854;2022-09-03T03:10:46;6.00;;;4.60;;
14599;SDS011;7386;45.586;12.854;2022-09-03T03:13:17;5.45;;;4.57;;
14599;SDS011;7386;45.586;12.854;2022-09-03T03:15:46;5.90;;;4.50;;
14599;SDS011;7386;45.586;12.854;2022-09-03T03:18:14;5.88;;;4.72;;
14599;SDS011;7386;45.586;12.854;2022-09-03T03:20:43;4.75;;;4.07;;
14599;SDS011;7386;45.586;12.854;2022-09-03T03:23:15;5.10;;;4.30;;
14599;SDS011;7386;45.586;12.854;2022-09-03T03:25:43;4.80;;;4.30;;
14599;SDS011;7386;45.586;12.854;2022-09-03T03:28:12;4.70;;;4.20;;
14599;SDS011;7386;45.586;12.854;2022-09-03T03:30:40;4.32;;;3.92;;
14599;SDS011;7386;45.586;12.854;2022-09-03T03:33:12;4.80;;;4.22;;
14599;SDS011;7386;45.586;12.854;2022-09-03T03:35:41;6.05;;;4.20;;
14599;SDS011;7386;45.586;12.854;2022-09-03T03:38:10;6.43;;;4.55;;
14599;SDS011;7386;45.586;12.854;2022-09-03T03:40:39;4.75;;;4.28;;
14599;SDS011;7386;45.586;12.854;2022-09-03T03:43:08;7.35;;;4.55;;
14599;SDS011;7386;45.586;12.854;2022-09-03T03:45:36;5.35;;;4.20;;
14599;SDS011;7386;45.586;12.854;2022-09-03T03:48:05;6.20;;;4.75;;
14599;SDS011;7386;45.586;12.854;2022-09-03T03:50:34;7.45;;;4.90;;
14599;SDS011;7386;45.586;12.854;2022-09-03T03:53:03;6.13;;;4.50;;
14599;SDS011;7386;45.586;12.854;2022-09-03T03:55:31;6.25;;;4.75;;
14599;SDS011;7386;45.586;12.854;2022-09-03T03:58:02;5.63;;;4.40;;
14599;SDS011;7386;45.586;12.854;2022-09-03T04:00:30;4.88;;;4.32;;
14599;SDS011;7386;45.586;12.854;2022-09-03T04:03:03;5.97;;;4.63;;
14599;SDS011;7386;45.586;12.854;2022-09-03T04:05:31;7.03;;;4.50;;
14599;SDS011;7386;45.586;12.854;2022-09-03T04:08:00;5.90;;;4.78;;
14599;SDS011;7386;45.586;12.854;2022-09-03T04:10:29;8.05;;;4.82;;
14599;SDS011;7386;45.586;12.854;2022-09-03T04:12:57;4.97;;;4.35;;
14599;SDS011;7386;45.586;12.854;2022-09-03T04:15:28;6.63;;;4.40;;
14599;SDS011;7386;45.586;12.854;2022-09-03T04:17:56;7.70;;;4.60;;
14599;SDS011;7386;45.586;12.854;2022-09-03T04:20:25;5.82;;;4.22;;
14599;SDS011;7386;45.586;12.854;2022-09-03T04:22:54;6.93;;;4.30;;
14599;SDS011;7386;45.586;12.854;2022-09-03T04:25:23;6.57;;;4.43;;
14599;SDS011;7386;45.586;12.854;2022-09-03T04:27:51;7.75;;;4.32;;
14599;SDS011;7386;45.586;12.854;2022-09-03T04:30:21;5.45;;;4.13;;
14599;SDS011;7386;45.586;12.854;2022-09-03T04:32:52;7.03;;;4.05;;
14599;SDS011;7386;45.586;12.854;2022-09-03T04:35:20;5.72;;;4.30;;
14599;SDS011;7386;45.586;12.854;2022-09-03T04:37:48;4.97;;;4.47;;
14599;SDS011;7386;45.586;12.854;2022-09-03T04:40:16;7.88;;;4.68;;
14599;SDS011;7386;45.586;12.854;2022-09-03T04:42:45;8.07;;;4.72;;
14599;SDS011;7386;45.586;12.854;2022-09-03T04:45:14;10.07;;;4.97;;
14599;SDS011;7386;45.586;12.854;2022-09-03T04:47:44;6.97;;;4.70;;
14599;SDS011;7386;45.586;12.854;2022-09-03T04:50:24;5.82;;;4.10;;
14599;SDS011;7386;45.586;12.854;2022-09-03T04:52:53;5.53;;;4.50;;
14599;SDS011;7386;45.586;12.854;2022-09-03T04:55:24;5.78;;;4.40;;
14599;SDS011;7386;45.586;12.854;2022-09-03T04:57:52;5.57;;;4.28;;
14599;SDS011;7386;45.586;12.854;2022-09-03T05:00:21;7.05;;;4.78;;
14599;SDS011;7386;45.586;12.854;2022-09-03T05:02:49;6.93;;;4.53;;
14599;SDS011;7386;45.586;12.854;2022-09-03T05:05:18;4.82;;;4.20;;
14599;SDS011;7386;45.586;12.854;2022-09-03T05:07:48;5.43;;;4.40;;
14599;SDS011;7386;45.586;12.854;2022-09-03T05:10:16;9.05;;;4.55;;
14599;SDS011;7386;45.586;12.854;2022-09-03T05:12:47;5.78;;;4.55;;
14599;SDS011;7386;45.586;12.854;2022-09-03T05:15:16;5.65;;;4.32;;
14599;SDS011;7386;45.586;12.854;2022-09-03T05:17:44;5.45;;;4.35;;
14599;SDS011;7386;45.586;12.854;2022-09-03T05:20:13;5.45;;;4.35;;
14599;SDS011;7386;45.586;12.854;2022-09-03T05:22:42;5.13;;;4.45;;
14599;SDS011;7386;45.586;12.854;2022-09-03T05:25:12;6.45;;;4.70;;
14599;SDS011;7386;45.586;12.854;2022-09-03T05:27:40;6.38;;;4.22;;
14599;SDS011;7386;45.586;12.854;2022-09-03T05:30:09;8.07;;;4.45;;
14599;SDS011;7386;45.586;12.854;2022-09-03T05:32:38;4.72;;;4.03;;
14599;SDS011;7386;45.586;12.854;2022-09-03T05:35:07;5.78;;;4.35;;
14599;SDS011;7386;45.586;12.854;2022-09-03T05:37:36;5.95;;;4.50;;
14599;SDS011;7386;45.586;12.854;2022-09-03T05:40:05;4.88;;;4.32;;
14599;SDS011;7386;45.586;12.854;2022-09-03T05:42:38;5.75;;;4.20;;
14599;SDS011;7386;45.586;12.854;2022-09-03T05:45:06;5.93;;;3.95;;
14599;SDS011;7386;45.586;12.854;2022-09-03T05:47:36;5.38;;;4.30;;
14599;SDS011;7386;45.586;12.854;2022-09-03T05:50:06;6.20;;;4.18;;
14599;SDS011;7386;45.586;12.854;2022-09-03T05:52:36;5.40;;;4.40;;
14599;SDS011;7386;45.586;12.854;2022-09-03T05:55:04;5.72;;;4.45;;
14599;SDS011;7386;45.586;12.854;2022-09-03T05:57:39;7.22;;;4.68;;
14599;SDS011;7386;45.586;12.854;2022-09-03T06:00:09;9.70;;;4.40;;
14599;SDS011;7386;45.586;12.854;2022-09-03T06:02:40;4.80;;;4.20;;
14599;SDS011;7386;45.586;12.854;2022-09-03T06:05:16;8.23;;;4.32;;
14599;SDS011;7386;45.586;12.854;2022-09-03T06:07:45;6.28;;;4.15;;
14599;SDS011;7386;45.586;12.854;2022-09-03T06:10:14;6.03;;;4.00;;
14599;SDS011;7386;45.586;12.854;2022-09-03T06:12:51;6.97;;;4.50;;
14599;SDS011;7386;45.586;12.854;2022-09-03T06:15:20;4.82;;;4.15;;
14599;SDS011;7386;45.586;12.854;2022-09-03T06:17:49;10.05;;;4.43;;
14599;SDS011;7386;45.586;12.854;2022-09-03T06:20:17;5.15;;;4.28;;
14599;SDS011;7386;45.586;12.854;2022-09-03T06:22:47;5.45;;;4.20;;
14599;SDS011;7386;45.586;12.854;2022-09-03T06:25:18;5.40;;;4.32;;
14599;SDS011;7386;45.586;12.854;2022-09-03T06:27:47;6.78;;;4.50;;
14599;SDS011;7386;45.586;12.854;2022-09-03T06:30:17;5.88;;;4.35;;
14599;SDS011;7386;45.586;12.854;2022-09-03T06:32:45;7.70;;;4.50;;
14599;SDS011;7386;45.586;12.854;2022-09-03T06:35:15;8.23;;;4.20;;
14599;SDS011;7386;45.586;12.854;2022-09-03T06:37:44;6.20;;;4.10;;
14599;SDS011;7386;45.586;12.854;2022-09-03T06:40:13;8.20;;;4.43;;
14599;SDS011;7386;45.586;12.854;2022-09-03T06:42:54;5.82;;;3.85;;
14599;SDS011;7386;45.586;12.854;2022-09-03T06:45:29;5.93;;;3.92;;
14599;SDS011;7386;45.586;12.854;2022-09-03T06:47:57;4.55;;;4.00;;
14599;SDS011;7386;45.586;12.854;2022-09-03T06:50:26;8.13;;;4.22;;
14599;SDS011;7386;45.586;12.854;2022-09-03T06:52:59;5.55;;;3.80;;
14599;SDS011;7386;45.586;12.854;2022-09-03T06:55:28;5.60;;;3.60;;
14599;SDS011;7386;45.586;12.854;2022-09-03T06:57:56;5.13;;;3.92;;
14599;SDS011;7386;45.586;12.854;2022-09-03T07:00:25;5.78;;;4.20;;
14599;SDS011;7386;45.586;12.854;2022-09-03T07:02:58;8.52;;;3.97;;
14599;SDS011;7386;45.586;12.854;2022-09-03T07:05:28;5.10;;;3.80;;
14599;SDS011;7386;45.586;12.854;2022-09-03T07:07:56;10.60;;;4.55;;
14599;SDS011;7386;45.586;12.854;2022-09-03T07:10:25;5.82;;;4.30;;
14599;SDS011;7386;45.586;12.854;2022-09-03T07:12:53;7.75;;;4.05;;
14599;SDS011;7386;45.586;12.854;2022-09-03T07:15:22;4.75;;;3.70;;
14599;SDS011;7386;45.586;12.854;2022-09-03T07:17:51;4.65;;;3.95;;
14599;SDS011;7386;45.586;12.854;2022-09-03T07:20:21;5.82;;;4.18;;
14599;SDS011;7386;45.586;12.854;2022-09-03T07:22:53;4.70;;;3.75;;
14599;SDS011;7386;45.586;12.854;2022-09-03T07:25:22;4.30;;;3.80;;
14599;SDS011;7386;45.586;12.854;2022-09-03T07:27:51;5.65;;;3.92;;
14599;SDS011;7386;45.586;12.854;2022-09-03T07:30:20;7.32;;;3.67;;
14599;SDS011;7386;45.586;12.854;2022-09-03T07:32:51;5.63;;;3.70;;
14599;SDS011;7386;45.586;12.854;2022-09-03T07:35:22;7.25;;;5.20;;
14599;SDS011;7386;45.586;12.854;2022-09-03T07:37:51;7.18;;;4.75;;
14599;SDS011;7386;45.586;12.854;2022-09-03T07:40:20;7.20;;;3.88;;
14599;SDS011;7386;45.586;12.854;2022-09-03T07:42:49;6.55;;;3.88;;
14599;SDS011;7386;45.586;12.854;2022-09-03T07:45:20;5.05;;;3.88;;
14599;SDS011;7386;45.586;12.854;2022-09-03T07:47:49;7.47;;;4.70;;
14599;SDS011;7386;45.586;12.854;2022-09-03T07:50:17;6.43;;;4.47;;
14599;SDS011;7386;45.586;12.854;2022-09-03T07:52:50;8.88;;;4.00;;
14599;SDS011;7386;45.586;12.854;2022-09-03T07:55:23;6.00;;;3.80;;
14599;SDS011;7386;45.586;12.854;2022-09-03T07:57:54;6.60;;;4.38;;
14599;SDS011;7386;45.586;12.854;2022-09-03T08:00:30;8.88;;;5.00;;
14599;SDS011;7386;45.586;12.854;2022-09-03T08:02:59;8.50;;;5.30;;
14599;SDS011;7386;45.586;12.854;2022-09-03T08:05:34;6.85;;;5.25;;
14599;SDS011;7386;45.586;12.854;2022-09-03T08:08:07;8.40;;;4.43;;
14599;SDS011;7386;45.586;12.854;2022-09-03T08:10:40;11.25;;;4.10;;
14599;SDS011;7386;45.586;12.854;2022-09-03T08:13:09;14.20;;;4.40;;
14599;SDS011;7386;45.586;12.854;2022-09-03T08:15:38;7.63;;;4.70;;
14599;SDS011;7386;45.586;12.854;2022-09-03T08:18:08;8.65;;;4.78;;
14599;SDS011;7386;45.586;12.854;2022-09-03T08:20:37;12.30;;;4.40;;
14599;SDS011;7386;45.586;12.854;2022-09-03T08:23:08;10.93;;;4.82;;
14599;SDS011;7386;45.586;12.854;2022-09-03T08:25:36;6.03;;;4.47;;
14599;SDS011;7386;45.586;12.854;2022-09-03T08:28:05;8.93;;;4.90;;
14599;SDS011;7386;45.586;12.854;2022-09-03T08:30:34;8.15;;;4.70;;
14599;SDS011;7386;45.586;12.854;2022-09-03T08:33:03;9.82;;;3.97;;
14599;SDS011;7386;45.586;12.854;2022-09-03T08:35:35;7.70;;;4.28;;
14599;SDS011;7386;45.586;12.854;2022-09-03T08:38:04;5.97;;;4.32;;
14599;SDS011;7386;45.586;12.854;2022-09-03T08:40:37;9.40;;;5.03;;
14599;SDS011;7386;45.586;12.854;2022-09-03T08:43:08;11.13;;;4.60;;
14599;SDS011;7386;45.586;12.854;2022-09-03T08:45:42;9.98;;;4.93;;
14599;SDS011;7386;45.586;12.854;2022-09-03T08:48:11;5.57;;;4.35;;
14599;SDS011;7386;45.586;12.854;2022-09-03T08:50:42;7.22;;;5.28;;
14599;SDS011;7386;45.586;12.854;2022-09-03T08:53:13;7.40;;;5.43;;
14599;SDS011;7386;45.586;12.854;2022-09-03T08:55:49;7.70;;;4.88;;
14599;SDS011;7386;45.586;12.854;2022-09-03T08:58:18;5.43;;;4.50;;
14599;SDS011;7386;45.586;12.854;2022-09-03T09:00:48;7.20;;;5.22;;
14599;SDS011;7386;45.586;12.854;2022-09-03T09:03:26;11.93;;;7.63;;
14599;SDS011;7386;45.586;12.854;2022-09-03T09:05:59;7.63;;;5.80;;
14599;SDS011;7386;45.586;12.854;2022-09-03T09:08:34;11.20;;;6.07;;
14599;SDS011;7386;45.586;12.854;2022-09-03T09:11:12;10.18;;;7.10;;
14599;SDS011;7386;45.586;12.854;2022-09-03T09:13:45;10.98;;;5.43;;
14599;SDS011;7386;45.586;12.854;2022-09-03T09:16:18;13.00;;;5.82;;
14599;SDS011;7386;45.586;12.854;2022-09-03T09:18:54;12.90;;;7.28;;
14599;SDS011;7386;45.586;12.854;2022-09-03T09:21:26;11.35;;;8.10;;
14599;SDS011;7386;45.586;12.854;2022-09-03T09:23:56;17.60;;;12.30;;
14599;SDS011;7386;45.586;12.854;2022-09-03T09:26:28;18.80;;;12.65;;
14599;SDS011;7386;45.586;12.854;2022-09-03T09:28:57;15.70;;;8.40;;
14599;SDS011;7386;45.586;12.854;2022-09-03T09:31:30;12.00;;;8.57;;
14599;SDS011;7386;45.586;12.854;2022-09-03T09:34:00;13.57;;;9.75;;
14599;SDS011;7386;45.586;12.854;2022-09-03T09:36:29;16.33;;;11.10;;
14599;SDS011;7386;45.586;12.854;2022-09-03T09:39:06;21.00;;;12.95;;
14599;SDS011;7386;45.586;12.854;2022-09-03T09:41:37;22.23;;;12.27;;
14599;SDS011;7386;45.586;12.854;2022-09-03T09:44:05;9.80;;;7.00;;
14599;SDS011;7386;45.586;12.854;2022-09-03T09:46:41;11.23;;;8.13;;
14599;SDS011;7386;45.586;12.854;2022-09-03T09:49:17;13.80;;;9.02;;
14599;SDS011;7386;45.586;12.854;2022-09-03T09:51:59;12.18;;;6.65;;
14599;SDS011;7386;45.586;12.854;2022-09-03T09:54:27;11.38;;;6.18;;
14599;SDS011;7386;45.586;12.854;2022-09-03T09:57:00;10.43;;;7.50;;
14599;SDS011;7386;45.586;12.854;2022-09-03T09:59:30;11.25;;;7.90;;
14599;SDS011;7386;45.586;12.854;2022-09-03T10:02:10;7.55;;;5.82;;
14599;SDS011;7386;45.586;12.854;2022-09-03T10:04:47;10.80;;;6.60;;
14599;SDS011;7386;45.586;12.854;2022-09-03T10:07:21;12.95;;;9.13;;
14599;SDS011;7386;45.586;12.854;2022-09-03T10:09:57;10.07;;;6.03;;
14599;SDS011;7386;45.586;12.854;2022-09-03T10:12:29;9.07;;;5.43;;
14599;SDS011;7386;45.586;12.854;2022-09-03T10:15:03;8.80;;;5.63;;
14599;SDS011;7386;45.586;12.854;2022-09-03T10:17:39;10.73;;;6.15;;
14599;SDS011;7386;45.586;12.854;2022-09-03T10:20:10;9.25;;;6.82;;
14599;SDS011;7386;45.586;12.854;2022-09-03T10:22:58;10.90;;;7.18;;
14599;SDS011;7386;45.586;12.854;2022-09-03T10:25:29;8.65;;;6.60;;
14599;SDS011;7386;45.586;12.854;2022-09-03T10:28:06;11.88;;;6.28;;
14599;SDS011;7386;45.586;12.854;2022-09-03T10:30:44;8.75;;;6.47;;
14599;SDS011;7386;45.586;12.854;2022-09-03T10:33:15;12.20;;;8.70;;
14599;SDS011;7386;45.586;12.854;2022-09-03T10:35:49;9.20;;;5.70;;
14599;SDS011;7386;45.586;12.854;2022-09-03T10:38:21;13.00;;;8.63;;
14599;SDS011;7386;45.586;12.854;2022-09-03T10:40:54;12.02;;;7.30;;
14599;SDS011;7386;45.586;12.854;2022-09-03T10:43:33;8.88;;;6.55;;
14599;SDS011;7386;45.586;12.854;2022-09-03T10:46:08;17.63;;;10.27;;
14599;SDS011;7386;45.586;12.854;2022-09-03T10:48:40;11.35;;;7.18;;
14599;SDS011;7386;45.586;12.854;2022-09-03T10:51:15;7.57;;;4.72;;
14599;SDS011;7386;45.586;12.854;2022-09-03T10:53:50;13.57;;;9.23;;
14599;SDS011;7386;45.586;12.854;2022-09-03T10:56:24;10.65;;;5.72;;
14599;SDS011;7386;45.586;12.854;2022-09-03T11:02:01;4.65;;;3.78;;
14599;SDS011;7386;45.586;12.854;2022-09-03T11:04:37;10.40;;;6.90;;
14599;SDS011;7386;45.586;12.854;2022-09-03T11:07:11;15.48;;;9.43;;
14599;SDS011;7386;45.586;12.854;2022-09-03T11:09:40;11.07;;;8.35;;
14599;SDS011;7386;45.586;12.854;2022-09-03T11:12:12;13.93;;;8.48;;
14599;SDS011;7386;45.586;12.854;2022-09-03T11:14:49;10.55;;;7.10;;
14599;SDS011;7386;45.586;12.854;2022-09-03T11:17:23;12.88;;;9.50;;
14599;SDS011;7386;45.586;12.854;2022-09-03T11:19:56;16.08;;;9.48;;
14599;SDS011;7386;45.586;12.854;2022-09-03T11:22:28;7.78;;;6.05;;
14599;SDS011;7386;45.586;12.854;2022-09-03T11:24:57;9.93;;;6.43;;
14599;SDS011;7386;45.586;12.854;2022-09-03T11:27:31;9.23;;;6.40;;
14599;SDS011;7386;45.586;12.854;2022-09-03T11:30:04;8.50;;;5.68;;
14599;SDS011;7386;45.586;12.854;2022-09-03T11:32:42;13.30;;;7.70;;
14599;SDS011;7386;45.586;12.854;2022-09-03T11:35:24;10.27;;;6.40;;
14599;SDS011;7386;45.586;12.854;2022-09-03T11:37:56;10.02;;;4.57;;
14599;SDS011;7386;45.586;12.854;2022-09-03T11:40:28;8.77;;;4.68;;
14599;SDS011;7386;45.586;12.854;2022-09-03T11:43:06;8.25;;;4.07;;
14599;SDS011;7386;45.586;12.854;2022-09-03T11:45:37;5.93;;;4.05;;
14599;SDS011;7386;45.586;12.854;2022-09-03T11:48:27;19.48;;;12.45;;
14599;SDS011;7386;45.586;12.854;2022-09-03T11:50:57;9.40;;;6.75;;
14599;SDS011;7386;45.586;12.854;2022-09-03T11:53:31;8.27;;;4.38;;
14599;SDS011;7386;45.586;12.854;2022-09-03T11:56:11;6.80;;;3.97;;
14599;SDS011;7386;45.586;12.854;2022-09-03T11:58:44;4.72;;;3.40;;
14599;SDS011;7386;45.586;12.854;2022-09-03T12:01:15;11.45;;;5.47;;
14599;SDS011;7386;45.586;12.854;2022-09-03T12:03:47;9.10;;;5.68;;
14599;SDS011;7386;45.586;12.854;2022-09-03T12:06:21;4.75;;;3.50;;
14599;SDS011;7386;45.586;12.854;2022-09-03T12:09:00;8.32;;;5.03;;
14599;SDS011;7386;45.586;12.854;2022-09-03T12:11:35;10.90;;;7.45;;
14599;SDS011;7386;45.586;12.854;2022-09-03T12:14:08;8.50;;;5.82;;
14599;SDS011;7386;45.586;12.854;2022-09-03T12:16:46;5.40;;;4.18;;
14599;SDS011;7386;45.586;12.854;2022-09-03T12:19:23;8.80;;;4.00;;
14599;SDS011;7386;45.586;12.854;2022-09-03T12:21:56;9.43;;;5.90;;
14599;SDS011;7386;45.586;12.854;2022-09-03T12:24:28;14.48;;;9.77;;
14599;SDS011;7386;45.586;12.854;2022-09-03T12:27:03;11.65;;;4.97;;
14599;SDS011;7386;45.586;12.854;2022-09-03T12:29:37;6.15;;;3.65;;
14599;SDS011;7386;45.586;12.854;2022-09-03T12:32:07;8.80;;;5.65;;
14599;SDS011;7386;45.586;12.854;2022-09-03T12:34:37;10.02;;;6.60;;
14599;SDS011;7386;45.586;12.854;2022-09-03T12:37:15;22.13;;;12.70;;
14599;SDS011;7386;45.586;12.854;2022-09-03T12:40:14;7.03;;;5.38;;
14599;SDS011;7386;45.586;12.854;2022-09-03T12:42:43;9.38;;;4.43;;
14599;SDS011;7386;45.586;12.854;2022-09-03T12:45:12;28.65;;;13.15;;
14599;SDS011;7386;45.586;12.854;2022-09-03T12:47:42;41.25;;;17.08;;
14599;SDS011;7386;45.586;12.854;2022-09-03T12:50:17;62.60;;;23.70;;
14599;SDS011;7386;45.586;12.854;2022-09-03T12:52:47;33.55;;;14.07;;
14599;SDS011;7386;45.586;12.854;2022-09-03T12:55:20;12.73;;;6.32;;
14599;SDS011;7386;45.586;12.854;2022-09-03T12:57:54;8.40;;;4.10;;
14599;SDS011;7386;45.586;12.854;2022-09-03T13:00:28;17.15;;;8.20;;
14599;SDS011;7386;45.586;12.854;2022-09-03T13:02:59;10.88;;;6.65;;
14599;SDS011;7386;45.586;12.854;2022-09-03T13:05:31;9.05;;;4.60;;
14599;SDS011;7386;45.586;12.854;2022-09-03T13:08:03;6.00;;;4.50;;
14599;SDS011;7386;45.586;12.854;2022-09-03T13:10:36;7.93;;;4.70;;
14599;SDS011;7386;45.586;12.854;2022-09-03T13:13:14;14.07;;;8.88;;
14599;SDS011;7386;45.586;12.854;2022-09-03T13:15:54;13.32;;;6.05;;
14599;SDS011;7386;45.586;12.854;2022-09-03T13:18:26;8.20;;;4.40;;
14599;SDS011;7386;45.586;12.854;2022-09-03T13:21:05;7.25;;;5.20;;
14599;SDS011;7386;45.586;12.854;2022-09-03T13:23:49;9.55;;;5.85;;
14599;SDS011;7386;45.586;12.854;2022-09-03T13:26:23;5.97;;;4.35;;
14599;SDS011;7386;45.586;12.854;2022-09-03T13:29:00;14.30;;;8.65;;
14599;SDS011;7386;45.586;12.854;2022-09-03T13:31:35;7.70;;;4.68;;
14599;SDS011;7386;45.586;12.854;2022-09-03T13:34:07;11.80;;;4.00;;
14599;SDS011;7386;45.586;12.854;2022-09-03T13:36:40;6.50;;;3.80;;
14599;SDS011;7386;45.586;12.854;2022-09-03T13:39:15;5.13;;;3.63;;
14599;SDS011;7386;45.586;12.854;2022-09-03T13:41:48;7.82;;;4.82;;
14599;SDS011;7386;45.586;12.854;2022-09-03T13:44:23;7.68;;;5.55;;
14599;SDS011;7386;45.586;12.854;2022-09-03T13:46:59;7.65;;;5.32;;
14599;SDS011;7386;45.586;12.854;2022-09-03T13:49:33;6.50;;;3.47;;
14599;SDS011;7386;45.586;12.854;2022-09-03T13:52:23;10.98;;;6.88;;
14599;SDS011;7386;45.586;12.854;2022-09-03T13:54:56;9.07;;;4.65;;
14599;SDS011;7386;45.586;12.854;2022-09-03T13:57:32;6.07;;;3.95;;
14599;SDS011;7386;45.586;12.854;2022-09-03T14:00:03;7.28;;;4.20;;
14599;SDS011;7386;45.586;12.854;2022-09-03T14:02:39;6.68;;;4.40;;
14599;SDS011;7386;45.586;12.854;2022-09-03T14:05:15;8.90;;;4.32;;
14599;SDS011;7386;45.586;12.854;2022-09-03T14:07:57;6.10;;;3.70;;
14599;SDS011;7386;45.586;12.854;2022-09-03T14:10:35;6.70;;;4.00;;
14599;SDS011;7386;45.586;12.854;2022-09-03T14:13:09;7.32;;;4.28;;
14599;SDS011;7386;45.586;12.854;2022-09-03T14:15:41;10.07;;;4.30;;
14599;SDS011;7386;45.586;12.854;2022-09-03T14:18:12;8.45;;;6.10;;
14599;SDS011;7386;45.586;12.854;2022-09-03T14:20:43;5.80;;;4.25;;
14599;SDS011;7386;45.586;12.854;2022-09-03T14:25:59;9.60;;;4.30;;
14599;SDS011;7386;45.586;12.854;2022-09-03T14:28:28;7.95;;;5.07;;
14599;SDS011;7386;45.586;12.854;2022-09-03T14:31:01;13.25;;;6.55;;
14599;SDS011;7386;45.586;12.854;2022-09-03T14:33:31;7.03;;;4.10;;
14599;SDS011;7386;45.586;12.854;2022-09-03T14:36:07;8.23;;;3.55;;
14599;SDS011;7386;45.586;12.854;2022-09-03T14:38:41;8.43;;;4.57;;
14599;SDS011;7386;45.586;12.854;2022-09-03T14:41:34;9.75;;;4.55;;
14599;SDS011;7386;45.586;12.854;2022-09-03T14:47:07;9.40;;;5.00;;
14599;SDS011;7386;45.586;12.854;2022-09-03T14:49:44;9.15;;;4.63;;
14599;SDS011;7386;45.586;12.854;2022-09-03T14:55:12;9.73;;;4.90;;
14599;SDS011;7386;45.586;12.854;2022-09-03T14:57:52;8.80;;;5.40;;
14599;SDS011;7386;45.586;12.854;2022-09-03T15:00:27;11.45;;;6.32;;
14599;SDS011;7386;45.586;12.854;2022-09-03T15:03:20;6.95;;;4.40;;
14599;SDS011;7386;45.586;12.854;2022-09-03T15:06:10;8.40;;;3.92;;
14599;SDS011;7386;45.586;12.854;2022-09-03T15:09:02;7.30;;;5.22;;
14599;SDS011;7386;45.586;12.854;2022-09-03T15:11:42;11.88;;;5.88;;
14599;SDS011;7386;45.586;12.854;2022-09-03T15:14:17;6.80;;;5.15;;
14599;SDS011;7386;45.586;12.854;2022-09-03T15:16:49;9.27;;;6.82;;
14599;SDS011;7386;45.586;12.854;2022-09-03T15:19:27;13.27;;;9.25;;
14599;SDS011;7386;45.586;12.854;2022-09-03T15:22:06;10.40;;;7.15;;
14599;SDS011;7386;45.586;12.854;2022-09-03T15:24:40;9.43;;;6.05;;
14599;SDS011;7386;45.586;12.854;2022-09-03T15:27:12;9.50;;;7.78;;
14599;SDS011;7386;45.586;12.854;2022-09-03T15:29:52;7.38;;;5.53;;